»·PEaware :: AAL420 KPHX-KCOS

AAL420 :: KPHX-KCOS

FLIGHT INFORMATION

Flight Status: Arrived
Operator:
American Airlines
More flights by this operator :: More flights under this callsign
Pilot: Patricio R. (14780)
Aircraft: BOEING 737-800
(B738)
More flights by this aircraft type
Origin: KPHX Phoenix Sky Harbor Intl
United States
Destination: KCOS City Of Colorado Springs Mun
United States
More flights between these airports :: More routes between these airports
Route: +MRBIL1 JARPA RSK J110 ALS DBRY3
File this flight plan on PilotEdge
Remarks: PBN / A1B1C1D1S1S2 DOF / 180821 REG / N806SB EET / KZDV0029 OPR / AAL PER / C RMK / TCAS SIMBRIEF
Altitude:
(Current/Filed)
37,000ft
Speed:
(Current/Filed)
455kts
Departed: 20-Aug-18 05:35 PM
Arrived: 20-Aug-18 06:54 PM
Distance/Time
Traveled:
478nm/1:19
Distance/Time
To Go:
Arrived

Flight Plot

Page will automatically refresh every two minutes.

Flight plan parsing failed; only flown route is shown


Map Options




Map Legend


Flown Route
Filed Route
Departure Airport
Arrival Airport
Navaid (VOR, NDB)
Fix

Horizontal Profiles

Position Reports

Time Latitude Longitude Heading Altitude Ground
Speed
20-Aug-18 17:17 33.436873 -112.002381 90 1130ft 0kts
20-Aug-18 17:18 33.436873 -112.002381 90 1130ft 0kts
20-Aug-18 17:19 33.436873 -112.002381 90 1130ft 0kts
20-Aug-18 17:20 33.436873 -112.002381 90 1130ft 0kts
20-Aug-18 17:21 33.436873 -112.002381 90 1130ft 0kts
20-Aug-18 17:22 33.436873 -112.002381 90 1130ft 0kts
20-Aug-18 17:23 33.436873 -112.002381 90 1130ft 0kts
20-Aug-18 17:24 33.436873 -112.002381 90 1130ft 0kts
20-Aug-18 17:25 33.436873 -112.002381 90 1130ft 0kts
20-Aug-18 17:26 33.436873 -112.002381 90 1130ft 0kts
20-Aug-18 17:27 33.436873 -112.002381 90 1130ft 0kts
20-Aug-18 17:28 33.436873 -112.002808 79 1129ft 2kts
20-Aug-18 17:29 33.436600 -112.003020 359 1129ft 0kts
20-Aug-18 17:30 33.436600 -112.003020 359 1129ft 0kts
20-Aug-18 17:31 33.438267 -112.003010 0 1130ft 6kts
20-Aug-18 17:32 33.438367 -112.003009 0 1130ft 0kts
20-Aug-18 17:33 33.439045 -112.002167 89 1132ft 9kts
20-Aug-18 17:34 33.439044 -111.997242 89 1136ft 16kts
20-Aug-18 17:35 33.439178 -111.992451 46 1135ft 11kts
20-Aug-18 17:36 33.440837 -111.998078 270 1137ft 89kts
20-Aug-18 17:37 33.440658 -112.047847 271 2583ft 168kts
20-Aug-18 17:38 33.442894 -112.115975 270 4434ft 223kts
20-Aug-18 17:39 33.459671 -112.189887 323 6732ft 275kts
20-Aug-18 17:40 33.538713 -112.197353 10 9331ft 301kts
20-Aug-18 17:41 33.619734 -112.167820 34 12074ft 311kts
20-Aug-18 17:42 33.677484 -112.095157 48 14686ft 321kts
20-Aug-18 17:43 33.738318 -112.016345 48 17349ft 331kts
20-Aug-18 17:44 33.796731 -111.928619 53 19675ft 344kts
20-Aug-18 17:45 33.854778 -111.835941 53 21816ft 356kts
20-Aug-18 17:46 33.914696 -111.740605 53 23774ft 367kts
20-Aug-18 17:47 33.976742 -111.641837 53 25632ft 376kts
20-Aug-18 17:48 34.054760 -111.558640 32 27438ft 382kts
20-Aug-18 17:49 34.144284 -111.490286 32 28783ft 395kts
20-Aug-18 17:50 34.238021 -111.418361 32 30169ft 404kts
20-Aug-18 17:51 34.331963 -111.345957 32 31336ft 415kts
20-Aug-18 17:52 34.428671 -111.271218 32 32457ft 424kts
20-Aug-18 17:53 34.527950 -111.194215 31 33551ft 432kts
20-Aug-18 17:54 34.627445 -111.115520 38 35000ft 429kts
20-Aug-18 17:55 34.712857 -111.014572 43 36176ft 429kts
20-Aug-18 17:56 34.797377 -110.911663 43 37103ft 433kts
20-Aug-18 17:57 34.885133 -110.804818 43 37165ft 461kts
20-Aug-18 17:58 34.977458 -110.692071 42 37156ft 474kts
20-Aug-18 17:59 35.069990 -110.578707 42 37159ft 473kts
20-Aug-18 18:00 35.162387 -110.465182 42 37164ft 488kts
20-Aug-18 18:01 35.257928 -110.347365 43 37157ft 490kts
20-Aug-18 18:02 35.353542 -110.229110 43 37155ft 491kts
20-Aug-18 18:03 35.448819 -110.110858 43 37155ft 489kts
20-Aug-18 18:04 35.544257 -109.991982 43 37155ft 490kts
20-Aug-18 18:05 35.632802 -109.881297 43 37267ft 490kts
20-Aug-18 18:06 35.727065 -109.758575 49 37283ft 498kts
20-Aug-18 18:07 35.810385 -109.622788 50 37278ft 499kts
20-Aug-18 18:08 35.893954 -109.485913 50 37278ft 499kts
20-Aug-18 18:09 35.977227 -109.349810 50 37279ft 499kts
20-Aug-18 18:10 36.060341 -109.214265 50 37273ft 498kts
20-Aug-18 18:11 36.143093 -109.079490 50 37274ft 497kts
20-Aug-18 18:12 36.226823 -108.943337 50 37274ft 498kts
20-Aug-18 18:13 36.310889 -108.806860 49 37230ft 502kts
20-Aug-18 18:14 36.394904 -108.670667 49 37158ft 496kts
20-Aug-18 18:15 36.479038 -108.534551 49 37159ft 499kts
20-Aug-18 18:16 36.563047 -108.398818 48 37160ft 498kts
20-Aug-18 18:17 36.645892 -108.265233 49 37153ft 498kts
20-Aug-18 18:18 36.730375 -108.129123 50 37153ft 497kts
20-Aug-18 18:19 36.784474 -107.969038 70 37155ft 510kts
20-Aug-18 18:20 36.826808 -107.801468 70 37157ft 507kts
20-Aug-18 18:21 36.869664 -107.634115 69 37258ft 507kts
20-Aug-18 18:22 36.912723 -107.466858 69 37259ft 507kts
20-Aug-18 18:23 36.956052 -107.299489 70 37294ft 506kts
20-Aug-18 18:24 36.999482 -107.132652 69 37353ft 505kts
20-Aug-18 18:25 37.042991 -106.966279 69 37356ft 506kts
20-Aug-18 18:26 37.086969 -106.798933 69 37357ft 506kts
20-Aug-18 18:27 37.130695 -106.633360 68 37361ft 504kts
20-Aug-18 18:28 37.174966 -106.466592 68 37624ft 505kts
20-Aug-18 18:29 37.215466 -106.314744 69 37683ft 506kts
20-Aug-18 18:30 37.260185 -106.147935 68 37409ft 506kts
20-Aug-18 18:31 37.305593 -105.979303 67 37301ft 509kts
20-Aug-18 18:32 37.354670 -105.813802 55 37309ft 503kts
20-Aug-18 18:33 37.441674 -105.679830 42 37302ft 489kts
20-Aug-18 18:34 37.531547 -105.551132 43 37306ft 492kts
20-Aug-18 18:35 37.621002 -105.421791 43 37306ft 491kts
20-Aug-18 18:36 37.707993 -105.295111 43 37286ft 454kts
20-Aug-18 18:37 37.789686 -105.175970 43 35042ft 445kts
20-Aug-18 18:38 37.868918 -105.059743 44 32844ft 431kts
20-Aug-18 18:39 37.945399 -104.947237 44 30496ft 415kts
20-Aug-18 18:40 38.019200 -104.838248 45 28137ft 401kts
20-Aug-18 18:41 38.090019 -104.733260 44 25611ft 386kts
20-Aug-18 18:42 38.168107 -104.657970 11 23043ft 354kts
20-Aug-18 18:43 38.261316 -104.648016 356 20560ft 330kts
20-Aug-18 18:44 38.350708 -104.646054 356 18133ft 317kts
20-Aug-18 18:45 38.437946 -104.644190 356 15663ft 313kts
20-Aug-18 18:46 38.523835 -104.642340 356 13655ft 308kts
20-Aug-18 18:47 38.608915 -104.640524 357 11660ft 305kts
20-Aug-18 18:48 38.692406 -104.638735 359 9863ft 300kts
20-Aug-18 18:49 38.773540 -104.636942 0 8988ft 275kts
20-Aug-18 18:50 38.845777 -104.633101 9 8636ft 247kts
20-Aug-18 18:51 38.905444 -104.631219 306 7828ft 194kts
20-Aug-18 18:52 38.895294 -104.682584 195 7513ft 163kts
20-Aug-18 18:53 38.852599 -104.685640 178 6858ft 155kts
20-Aug-18 18:54 38.809411 -104.685747 179 6199ft 148kts
20-Aug-18 18:55 38.791312 -104.687078 234 6135ft 0kts
20-Aug-18 18:56 38.792814 -104.687891 357 6127ft 15kts
20-Aug-18 18:57 38.797797 -104.687877 0 6133ft 16kts
20-Aug-18 18:58 38.802112 -104.687864 359 6161ft 13kts
20-Aug-18 18:59 38.802784 -104.693057 270 6153ft 25kts
20-Aug-18 19:00 38.800753 -104.698097 269 6131ft 13kts
20-Aug-18 19:01 38.799329 -104.702064 133 6116ft 11kts
20-Aug-18 19:02 38.799085 -104.701579 120 6119ft 0kts

Navigation Log

Ident Type
Flight plan parsing failed, navigation log unavailable